Main page
METAR-TAF:

METAR-TAF

Airports :

Suceava International Airport

Suceava, Romania

latitude: 47-39N, longitude: 026-15E, elevation: 351 m

Current weather observation

The report was made 25 minutes ago, at 07:30 UTC
Wind 2 kt from variable directions
Temperature 26°C
Humidity 70%
Pressure 1014 hPa
Visibility 10 km or more
no clouds below 1500 m and no cumulonimbus

METAR: LRSV 300730Z VRB02KT CAVOK 26/20 Q1014

Time: 10:55 (07:55 UTC)

Forecast

The report was made 2 hours and 55 minutes ago, at 05:00 UTC
Forecast valid from 30 at 06 UTC to 30 at 15 UTC
Wind 4 kt from variable directions
Visibility 10 km or more
no clouds below 1500 m and no cumulonimbus
Temporary
from 30 at 11 UTC to 30 at 15 UTC
Scattered clouds at a height of 4000 ft, Cumulonimbus.
Probability 30% :
Temporary
from 30 at 12 UTC to 30 at 15 UTC
Wind 20 kt from variable directions with gusts up to 30 kt
thunderstorm, light rain

TAF: LRSV 300500Z 3006/3015 VRB04KT CAVOK TEMPO 3011/3015 SCT040CB PROB30 TEMPO 3012/3015 VRB20G30KT -TSRA

Weather observations and forecasts of more than 4000 airports (METAR and TAF reports).

The available stations are represented by yellow and red dots on the map.

Hover mouse over dot to see the name of the station.

Then click to see weather observations and forecasts.

To change the map : click on the green buttons with a black cross to zoom in, on the green button with a dash to zoom out, or on the green arrows for adjacent maps.


METAR-TAF: